Time;durP1;ratioP1;P1;durP2;ratioP2;P2;SDS_P1;SDS_P2;PMS_P1;PMS_P2;Temp;Humidity;BMP_temperature;BMP_pressure;BME280_temperature;BME280_humidity;BME280_pressure;Samples;Min_cycle;Max_cycle;Signal;HPM_P1;HPM_P2
2023/06/05 00:02:23;;;;;;;;;;;8.90;99.90;;;;;;8430724;28;19923;-78
2023/06/05 00:06:24;;;;;;;;;;;9.00;99.90;;;;;;8404689;28;19996;-78
2023/06/05 00:10:25;;;;;;;;;;;8.80;99.90;;;;;;8383803;28;20335;-77
2023/06/05 00:14:25;;;;;;;;;;;8.60;99.90;;;;;;8437488;28;20377;-79
2023/06/05 00:18:26;;;;;;;;;;;8.50;99.90;;;;;;8454074;28;19915;-77
2023/06/05 00:22:27;;;;;;;;;;;8.20;99.90;;;;;;8422158;28;19924;-78
2023/06/05 00:26:28;;;;;;;;;;;8.30;99.90;;;;;;8412111;28;19964;-79
2023/06/05 00:30:28;;;;;;;;;;;8.30;99.90;;;;;;8420329;28;19923;-78
2023/06/05 00:34:29;;;;;;;;;;;8.60;99.90;;;;;;8414075;28;19922;-77
2023/06/05 00:38:29;;;;;;;;;;;8.70;99.90;;;;;;8414005;28;19913;-76
2023/06/05 00:42:30;;;;;;;;;;;8.70;99.90;;;;;;8409918;28;19912;-78
2023/06/05 00:46:30;;;;;;;;;;;8.60;99.90;;;;;;8405779;28;19914;-78
2023/06/05 00:50:32;;;;;;;;;;;8.40;99.90;;;;;;8402910;28;19919;-78
2023/06/05 00:54:33;;;;;;;;;;;8.30;99.90;;;;;;8440479;28;19908;-78
2023/06/05 00:58:33;;;;;;;;;;;8.10;99.90;;;;;;8438373;28;19919;-78
2023/06/05 01:02:37;;;;;;;;;;;7.90;99.90;;;;;;8428871;28;19923;-78
2023/06/05 01:06:41;;;;;;;;;;;7.80;99.90;;;;;;8408018;28;19939;-78
2023/06/05 01:10:41;;;;;;;;;;;7.90;99.90;;;;;;8407041;28;19960;-78
2023/06/05 01:14:45;;;;;;;;;;;8.00;99.90;;;;;;8415375;28;19912;-79
2023/06/05 01:18:46;;;;;;;;;;;7.80;99.90;;;;;;8403507;28;19944;-78
2023/06/05 01:22:49;;;;;;;;;;;7.70;99.90;;;;;;8408259;28;19924;-79
2023/06/05 01:27:00;;;;;;;;;;;7.60;99.90;;;;;;8429520;28;19919;-79
2023/06/05 01:31:03;;;;;;;;;;;7.60;99.90;;;;;;8401362;28;19939;-78
2023/06/05 01:35:08;;;;;;;;;;;7.30;99.90;;;;;;8420386;28;19908;-80
2023/06/05 01:39:09;;;;;;;;;;;7.30;99.90;;;;;;8388310;28;19924;-80
2023/06/05 01:43:11;;;;;;;;;;;7.30;99.90;;;;;;8400894;28;20291;-80
2023/06/05 01:47:12;;;;;;;;;;;7.30;99.90;;;;;;8397213;28;19909;-80
2023/06/05 01:51:12;;;;;;;;;;;7.20;99.90;;;;;;8396994;28;19916;-80
2023/06/05 01:55:16;;;;;;;;;;;7.20;99.90;;;;;;8446900;28;19960;-79
2023/06/05 01:59:16;;;;;;;;;;;7.30;99.90;;;;;;8421400;28;20515;-79
2023/06/05 02:03:17;;;;;;;;;;;7.30;99.90;;;;;;8385382;28;19912;-79
2023/06/05 02:07:18;;;;;;;;;;;7.30;99.90;;;;;;8396119;28;19948;-79
2023/06/05 02:11:18;;;;;;;;;;;7.20;99.90;;;;;;8410882;28;20291;-80
2023/06/05 02:15:19;;;;;;;;;;;7.10;99.90;;;;;;8408367;28;19907;-79
2023/06/05 02:19:19;;;;;;;;;;;7.00;99.90;;;;;;8418668;28;20330;-78
2023/06/05 02:23:20;;;;;;;;;;;7.10;99.90;;;;;;8420602;28;19923;-80
2023/06/05 02:27:23;;;;;;;;;;;7.10;99.90;;;;;;8423690;28;19962;-80
2023/06/05 02:31:25;;;;;;;;;;;7.10;99.90;;;;;;8400571;28;20365;-79
2023/06/05 02:35:25;;;;;;;;;;;7.20;99.90;;;;;;8394210;28;19998;-80
2023/06/05 02:39:26;;;;;;;;;;;7.10;99.90;;;;;;8423133;28;19920;-79
2023/06/05 02:43:26;;;;;;;;;;;7.00;99.90;;;;;;8406192;28;19913;-80
2023/06/05 02:47:27;;;;;;;;;;;7.00;99.90;;;;;;8435952;28;19991;-80
2023/06/05 02:51:27;;;;;;;;;;;6.90;99.90;;;;;;8432929;28;19911;-79
2023/06/05 02:55:29;;;;;;;;;;;6.90;99.90;;;;;;8436062;28;19919;-79
2023/06/05 02:59:31;;;;;;;;;;;6.80;99.90;;;;;;8419575;28;19909;-78
2023/06/05 03:03:32;;;;;;;;;;;6.70;99.90;;;;;;8433054;28;19916;-80
2023/06/05 03:07:33;;;;;;;;;;;6.80;99.90;;;;;;8402272;28;19923;-80
2023/06/05 03:11:34;;;;;;;;;;;6.80;99.90;;;;;;8432924;28;19926;-78
2023/06/05 03:15:35;;;;;;;;;;;6.60;99.90;;;;;;8400027;28;19915;-80
2023/06/05 03:19:35;;;;;;;;;;;6.60;99.90;;;;;;8415644;28;20383;-80
2023/06/05 03:23:36;;;;;;;;;;;6.70;99.90;;;;;;8391673;28;19916;-80
2023/06/05 03:27:36;;;;;;;;;;;6.70;99.90;;;;;;8424393;28;19912;-80
2023/06/05 03:31:37;;;;;;;;;;;6.80;99.90;;;;;;8417188;28;19912;-80
2023/06/05 03:35:39;;;;;;;;;;;6.70;99.90;;;;;;8404867;28;19912;-80
2023/06/05 03:39:40;;;;;;;;;;;6.70;99.90;;;;;;8402829;28;19912;-78
2023/06/05 03:43:40;;;;;;;;;;;6.70;99.90;;;;;;8417765;28;20430;-80
2023/06/05 03:47:41;;;;;;;;;;;6.70;99.90;;;;;;8410815;28;19912;-79
2023/06/05 03:51:43;;;;;;;;;;;6.70;99.90;;;;;;8401723;28;19915;-80
2023/06/05 03:55:49;;;;;;;;;;;6.90;99.90;;;;;;8411145;28;19923;-80
2023/06/05 03:59:49;;;;;;;;;;;6.90;99.90;;;;;;8413011;28;20996;-80
2023/06/05 04:03:50;;;;;;;;;;;7.20;99.90;;;;;;8405527;28;19924;-80
2023/06/05 04:07:50;;;;;;;;;;;7.60;99.90;;;;;;8412450;28;19954;-80
2023/06/05 04:11:51;;;;;;;;;;;7.90;99.90;;;;;;8416679;28;19914;-81
2023/06/05 04:15:51;;;;;;;;;;;8.60;99.90;;;;;;8423607;28;19924;-79
2023/06/05 04:19:52;;;;;;;;;;;9.30;99.90;;;;;;8417429;28;19912;-80
2023/06/05 04:23:52;;;;;;;;;;;9.50;99.90;;;;;;8446844;28;19923;-79
2023/06/05 04:27:53;;;;;;;;;;;10.30;99.90;;;;;;8451018;28;19974;-80
2023/06/05 04:31:53;;;;;;;;;;;11.30;99.90;;;;;;8390005;28;19975;-80
2023/06/05 04:35:54;;;;;;;;;;;11.60;99.90;;;;;;8409028;28;20327;-80
2023/06/05 04:39:55;;;;;;;;;;;12.10;99.90;;;;;;8425447;28;20045;-80
2023/06/05 04:43:57;;;;;;;;;;;12.30;99.90;;;;;;8401835;28;19916;-80
2023/06/05 04:47:57;;;;;;;;;;;12.80;99.90;;;;;;8423727;28;19908;-80
2023/06/05 04:51:59;;;;;;;;;;;13.50;99.90;;;;;;8399115;28;19916;-79
2023/06/05 04:56:00;;;;;;;;;;;13.90;99.90;;;;;;8418458;28;20002;-79
2023/06/05 05:00:04;;;;;;;;;;;14.30;99.90;;;;;;8409487;28;20011;-79
2023/06/05 05:04:04;;;;;;;;;;;14.50;99.90;;;;;;8390133;28;19922;-80
2023/06/05 05:08:05;;;;;;;;;;;14.80;99.90;;;;;;8404903;28;19913;-80
2023/06/05 05:12:07;;;;;;;;;;;15.20;99.90;;;;;;8441868;28;19927;-80
2023/06/05 05:16:07;;;;;;;;;;;16.00;99.90;;;;;;8421408;28;19919;-80
2023/06/05 05:24:11;;;;;;;;;;;16.40;99.90;;;;;;8406730;28;19935;-80
2023/06/05 05:28:11;;;;;;;;;;;17.00;99.90;;;;;;8397279;28;19913;-80
2023/06/05 05:32:12;;;;;;;;;;;17.30;99.90;;;;;;8366528;28;20427;-80
2023/06/05 05:36:14;;;;;;;;;;;17.60;99.90;;;;;;8346938;28;19935;-80
2023/06/05 05:40:14;;;;;;;;;;;18.00;99.90;;;;;;8367593;28;19918;-81
2023/06/05 05:44:15;;;;;;;;;;;18.20;99.90;;;;;;8344123;28;19947;-80
2023/06/05 05:48:15;;;;;;;;;;;18.50;99.90;;;;;;8346313;28;19915;-81
2023/06/05 05:52:17;;;;;;;;;;;18.60;99.90;;;;;;8369987;28;20320;-81
2023/06/05 05:56:18;;;;;;;;;;;19.00;99.90;;;;;;8362197;28;19974;-81
2023/06/05 06:00:18;;;;;;;;;;;19.00;99.90;;;;;;8341440;28;19917;-81
2023/06/05 06:04:19;;;;;;;;;;;20.10;99.90;;;;;;8344459;28;19970;-80
2023/06/05 06:08:20;;;;;;;;;;;20.80;99.90;;;;;;8346305;28;19913;-81
2023/06/05 06:12:21;;;;;;;;;;;21.00;99.90;;;;;;8337318;28;20412;-81
2023/06/05 06:16:21;;;;;;;;;;;21.80;99.90;;;;;;8346233;28;19920;-81
2023/06/05 06:20:22;;;;;;;;;;;22.60;99.90;;;;;;8342080;28;19920;-80
2023/06/05 06:24:24;;;;;;;;;;;22.30;99.90;;;;;;8353875;28;19917;-80
2023/06/05 06:28:25;;;;;;;;;;;22.50;99.90;;;;;;8336624;28;20366;-80
2023/06/05 06:32:28;;;;;;;;;;;22.30;99.90;;;;;;8344240;28;19928;-81
2023/06/05 06:36:29;;;;;;;;;;;21.80;99.90;;;;;;8361490;28;20336;-81
2023/06/05 06:40:29;;;;;;;;;;;22.20;99.90;;;;;;8349575;28;19912;-80
2023/06/05 06:44:30;;;;;;;;;;;22.60;99.90;;;;;;8357149;28;19927;-80
2023/06/05 06:48:31;;;;;;;;;;;22.60;99.90;;;;;;8338126;28;20392;-80
2023/06/05 06:52:31;;;;;;;;;;;22.30;99.90;;;;;;8338100;28;19924;-81
2023/06/05 06:56:32;;;;;;;;;;;22.20;99.90;;;;;;8346076;28;19917;-79
2023/06/05 07:00:33;;;;;;;;;;;21.90;99.90;;;;;;8340451;28;20308;-81
2023/06/05 07:04:34;;;;;;;;;;;22.30;99.90;;;;;;8356172;28;20369;-79
2023/06/05 07:08:34;;;;;;;;;;;22.50;99.90;;;;;;8336618;28;19917;-80
2023/06/05 07:12:35;;;;;;;;;;;23.00;99.90;;;;;;8332739;28;20428;-80
2023/06/05 07:16:35;;;;;;;;;;;22.80;99.90;;;;;;8351628;28;19916;-80
2023/06/05 07:20:36;;;;;;;;;;;22.60;99.90;;;;;;8348833;28;19939;-81
2023/06/05 07:24:38;;;;;;;;;;;22.80;99.90;;;;;;8337415;28;20324;-80
2023/06/05 07:28:39;;;;;;;;;;;23.30;99.90;;;;;;8338555;28;19912;-80
2023/06/05 07:32:40;;;;;;;;;;;23.70;99.90;;;;;;8341114;28;20446;-80
2023/06/05 07:36:40;;;;;;;;;;;24.80;99.90;;;;;;8360228;28;19916;-80
2023/06/05 07:40:41;;;;;;;;;;;25.10;99.90;;;;;;8357244;28;20330;-80
2023/06/05 07:44:41;;;;;;;;;;;25.00;99.90;;;;;;8346121;28;19916;-79
2023/06/05 07:48:42;;;;;;;;;;;24.10;99.90;;;;;;8342804;28;19917;-80
2023/06/05 07:52:44;;;;;;;;;;;24.00;99.90;;;;;;8349273;28;21184;-80
2023/06/05 07:56:48;;;;;;;;;;;24.50;99.90;;;;;;8342401;28;19916;-80
2023/06/05 08:00:49;;;;;;;;;;;24.90;99.90;;;;;;8368443;28;19920;-79
2023/06/05 08:04:50;;;;;;;;;;;24.40;99.90;;;;;;8363016;28;20010;-79
2023/06/05 08:08:50;;;;;;;;;;;24.20;99.90;;;;;;8349078;28;20675;-81
2023/06/05 08:12:51;;;;;;;;;;;24.10;99.90;;;;;;8340760;28;19921;-79
2023/06/05 08:16:52;;;;;;;;;;;24.00;99.90;;;;;;8353739;28;19920;-80
2023/06/05 08:20:52;;;;;;;;;;;24.50;99.90;;;;;;8333811;28;20011;-81
2023/06/05 08:24:54;;;;;;;;;;;24.90;99.90;;;;;;8342333;28;19927;-80
2023/06/05 08:28:54;;;;;;;;;;;25.20;99.90;;;;;;8353289;28;19917;-81
2023/06/05 08:32:55;;;;;;;;;;;25.20;99.90;;;;;;8363047;28;20311;-82
2023/06/05 08:36:58;;;;;;;;;;;25.30;99.90;;;;;;8343782;28;19920;-81
2023/06/05 08:41:07;;;;;;;;;;;25.50;99.90;;;;;;8357972;28;19921;-80
2023/06/05 08:45:08;;;;;;;;;;;25.30;99.20;;;;;;8356067;28;20068;-81
2023/06/05 08:49:11;;;;;;;;;;;25.20;99.90;;;;;;8356163;28;20355;-80
2023/06/05 08:53:12;;;;;;;;;;;25.00;99.30;;;;;;8341583;28;19962;-81
2023/06/05 08:57:13;;;;;;;;;;;24.10;99.90;;;;;;8343332;28;20172;-82
2023/06/05 09:01:13;;;;;;;;;;;24.50;99.90;;;;;;8356653;28;20304;-81
2023/06/05 09:05:14;;;;;;;;;;;25.00;99.90;;;;;;8362677;28;19958;-78
2023/06/05 09:09:15;;;;;;;;;;;24.00;99.90;;;;;;8336417;28;20038;-80
2023/06/05 09:13:15;;;;;;;;;;;23.60;99.90;;;;;;8350590;28;19909;-80
2023/06/05 09:17:17;;;;;;;;;;;23.80;99.90;;;;;;8347830;28;19923;-80
2023/06/05 09:21:17;;;;;;;;;;;23.70;99.90;;;;;;8360984;28;19920;-77
2023/06/05 09:25:18;;;;;;;;;;;23.50;99.90;;;;;;8342822;28;19986;-81
2023/06/05 09:29:21;;;;;;;;;;;24.30;99.90;;;;;;8340711;28;20424;-79
2023/06/05 09:33:23;;;;;;;;;;;24.90;99.50;;;;;;8343182;28;19932;-80
2023/06/05 09:37:31;;;;;;;;;;;25.10;96.90;;;;;;8340324;28;19933;-79
2023/06/05 09:41:41;;;;;;;;;;;24.50;97.60;;;;;;8362450;28;19921;-80
2023/06/05 09:45:42;;;;;;;;;;;24.60;96.10;;;;;;8340911;28;20414;-79
2023/06/05 09:49:43;;;;;;;;;;;24.50;95.20;;;;;;8339505;28;19913;-79
2023/06/05 09:53:44;;;;;;;;;;;23.80;97.60;;;;;;8359200;28;20365;-80
2023/06/05 09:57:46;;;;;;;;;;;23.00;96.90;;;;;;8362280;28;19916;-79
2023/06/05 10:01:47;;;;;;;;;;;22.90;98.70;;;;;;8356788;28;19917;-82
2023/06/05 10:05:48;;;;;;;;;;;22.90;98.30;;;;;;8370810;28;19924;-80
2023/06/05 10:09:49;;;;;;;;;;;24.30;97.70;;;;;;8348660;28;19908;-80
2023/06/05 10:13:50;;;;;;;;;;;24.40;96.10;;;;;;8374531;28;20407;-81
2023/06/05 10:17:50;;;;;;;;;;;24.60;96.10;;;;;;8343162;28;19916;-81
2023/06/05 10:21:51;;;;;;;;;;;24.90;96.00;;;;;;8365089;28;19942;-78
2023/06/05 10:25:53;;;;;;;;;;;24.80;95.00;;;;;;8344250;28;19983;-79
2023/06/05 10:30:13;;;;;;;;;;;24.40;95.80;;;;;;8357585;28;19917;-79
2023/06/05 10:34:32;;;;;;;;;;;24.10;96.40;;;;;;8360258;28;19959;-81
2023/06/05 10:38:33;;;;;;;;;;;24.00;93.90;;;;;;8360241;28;19913;-79
2023/06/05 10:42:34;;;;;;;;;;;23.50;96.60;;;;;;8356175;28;20286;-79
2023/06/05 10:46:35;;;;;;;;;;;24.40;94.00;;;;;;8344183;28;19917;-79
2023/06/05 10:50:36;;;;;;;;;;;23.90;94.20;;;;;;8355134;28;19913;-79
2023/06/05 10:54:40;;;;;;;;;;;24.00;96.40;;;;;;8353470;28;19966;-80
2023/06/05 10:59:00;;;;;;;;;;;25.80;92.20;;;;;;8368515;28;19918;-81
2023/06/05 11:03:01;;;;;;;;;;;26.00;91.80;;;;;;8362714;28;20391;-79
2023/06/05 11:07:14;;;;;;;;;;;26.00;93.20;;;;;;8374453;28;19917;-80
2023/06/05 11:11:14;;;;;;;;;;;26.70;88.20;;;;;;8382119;28;19913;-80
2023/06/05 11:15:30;;;;;;;;;;;27.50;86.10;;;;;;8361139;28;19916;-80
2023/06/05 11:19:33;;;;;;;;;;;27.40;84.40;;;;;;8385758;28;19912;-79
2023/06/05 11:23:34;;;;;;;;;;;27.00;82.40;;;;;;8359960;28;19924;-80
2023/06/05 11:27:41;;;;;;;;;;;27.30;81.00;;;;;;8367728;28;19924;-79
2023/06/05 11:31:42;;;;;;;;;;;27.70;84.60;;;;;;8360840;28;20315;-79
2023/06/05 11:35:44;;;;;;;;;;;27.30;81.80;;;;;;8378205;28;20133;-80
2023/06/05 11:39:44;;;;;;;;;;;27.40;80.10;;;;;;8368081;28;20318;-81
2023/06/05 11:43:46;;;;;;;;;;;27.80;80.40;;;;;;8360654;28;19977;-80
2023/06/05 11:47:46;;;;;;;;;;;28.40;84.40;;;;;;8368153;28;20414;-80
2023/06/05 11:51:47;;;;;;;;;;;28.50;75.20;;;;;;8384294;28;19965;-81
2023/06/05 11:59:51;;;;;;;;;;;26.10;75.60;;;;;;8383698;28;19919;-80
2023/06/05 12:04:12;;;;;;;;;;;24.80;81.30;;;;;;8366272;28;19920;-80
2023/06/05 12:08:25;;;;;;;;;;;24.10;80.70;;;;;;8340880;28;19977;-80
2023/06/05 12:12:26;;;;;;;;;;;25.10;79.80;;;;;;8382485;28;19993;-80
2023/06/05 12:16:34;;;;;;;;;;;26.40;74.40;;;;;;8360664;28;19915;-80
2023/06/05 12:20:39;;;;;;;;;;;27.00;75.10;;;;;;8361311;28;19909;-80
2023/06/05 12:24:41;;;;;;;;;;;28.50;67.90;;;;;;8365186;28;19917;-80
2023/06/05 12:28:43;;;;;;;;;;;29.00;65.20;;;;;;8381232;28;20007;-80
2023/06/05 12:32:43;;;;;;;;;;;26.20;69.40;;;;;;8375383;28;19919;-80
2023/06/05 12:36:45;;;;;;;;;;;26.80;70.10;;;;;;8358430;28;20203;-80
2023/06/05 12:40:45;;;;;;;;;;;28.10;70.20;;;;;;8384417;28;19917;-81
2023/06/05 12:44:46;;;;;;;;;;;27.70;65.30;;;;;;8358609;28;20090;-81
2023/06/05 12:48:46;;;;;;;;;;;25.80;69.90;;;;;;8359993;28;19916;-80
2023/06/05 12:52:47;;;;;;;;;;;24.90;73.70;;;;;;8381994;28;19920;-81
2023/06/05 12:56:48;;;;;;;;;;;26.20;72.10;;;;;;8383932;28;20334;-79
2023/06/05 13:00:48;;;;;;;;;;;27.20;70.30;;;;;;8365676;28;19912;-79
2023/06/05 13:04:49;;;;;;;;;;;26.90;69.10;;;;;;8364770;28;19920;-80
2023/06/05 13:08:51;;;;;;;;;;;27.20;68.20;;;;;;8373093;28;19909;-80
2023/06/05 13:12:51;;;;;;;;;;;27.90;65.20;;;;;;8365219;28;19985;-78
2023/06/05 13:16:52;;;;;;;;;;;29.90;58.60;;;;;;8382991;28;19917;-78
2023/06/05 13:20:52;;;;;;;;;;;30.60;57.30;;;;;;8365693;28;19975;-81
2023/06/05 13:24:53;;;;;;;;;;;30.20;58.00;;;;;;8381381;28;19923;-81
2023/06/05 13:28:53;;;;;;;;;;;31.20;57.00;;;;;;8365964;28;19916;-79
2023/06/05 13:32:54;;;;;;;;;;;31.50;55.80;;;;;;8375667;28;19913;-82
2023/06/05 13:36:54;;;;;;;;;;;29.50;59.80;;;;;;8381167;28;19976;-79
2023/06/05 13:40:55;;;;;;;;;;;31.60;55.10;;;;;;8365547;28;19913;-81
2023/06/05 13:44:56;;;;;;;;;;;30.90;55.70;;;;;;8359831;28;19928;-79
2023/06/05 13:48:59;;;;;;;;;;;30.10;55.60;;;;;;8367268;28;19980;-79
2023/06/05 13:53:00;;;;;;;;;;;30.60;52.90;;;;;;8367664;28;19916;-80
2023/06/05 13:57:00;;;;;;;;;;;31.00;50.90;;;;;;8382211;28;20015;-81
2023/06/05 14:01:01;;;;;;;;;;;31.10;52.60;;;;;;8370360;28;19966;-81
2023/06/05 14:05:01;;;;;;;;;;;30.50;52.40;;;;;;8365078;28;19917;-80
2023/06/05 14:09:02;;;;;;;;;;;30.80;54.50;;;;;;8362888;28;19924;-80
2023/06/05 14:13:03;;;;;;;;;;;31.50;50.20;;;;;;8367975;28;19921;-79
2023/06/05 14:17:03;;;;;;;;;;;30.90;52.50;;;;;;8370665;28;19916;-81
2023/06/05 14:21:04;;;;;;;;;;;30.90;51.30;;;;;;8356420;28;19917;-80
2023/06/05 14:25:06;;;;;;;;;;;30.50;52.70;;;;;;8360524;28;19924;-79
2023/06/05 14:29:06;;;;;;;;;;;30.20;54.40;;;;;;8338280;28;19916;-80
2023/06/05 14:33:06;;;;;;;;;;;28.50;55.00;;;;;;8360154;28;20293;-81
2023/06/05 14:37:07;;;;;;;;;;;25.40;60.20;;;;;;8351886;28;20182;-82
2023/06/05 14:41:07;;;;;;;;;;;25.40;62.10;;;;;;8362005;28;19916;-83
2023/06/05 14:45:08;;;;;;;;;;;29.30;54.00;;;;;;8363041;28;19917;-82
2023/06/05 14:49:08;;;;;;;;;;;31.50;52.80;;;;;;8342973;28;19936;-82
2023/06/05 14:53:09;;;;;;;;;;;32.50;51.70;;;;;;8358979;28;19974;-81
2023/06/05 14:57:09;;;;;;;;;;;31.20;52.70;;;;;;8357507;28;19928;-80
2023/06/05 15:01:13;;;;;;;;;;;32.00;53.60;;;;;;8339453;28;19967;-82
2023/06/05 15:05:14;;;;;;;;;;;30.60;52.90;;;;;;8356393;28;19923;-81
2023/06/05 15:09:14;;;;;;;;;;;30.30;53.60;;;;;;8384993;28;19916;-81
2023/06/05 15:13:15;;;;;;;;;;;30.30;52.90;;;;;;8339610;28;19917;-81
2023/06/05 15:17:25;;;;;;;;;;;31.00;51.40;;;;;;8352024;28;20286;-82
2023/06/05 15:21:28;;;;;;;;;;;32.10;52.00;;;;;;8345482;28;19920;-82
2023/06/05 15:25:29;;;;;;;;;;;30.60;53.20;;;;;;8342541;28;19923;-79
2023/06/05 15:29:29;;;;;;;;;;;29.60;56.10;;;;;;8358572;28;19912;-80
2023/06/05 15:33:30;;;;;;;;;;;28.70;58.00;;;;;;8345677;28;19912;-80
2023/06/05 15:37:31;;;;;;;;;;;28.10;56.00;;;;;;8360646;28;20296;-81
2023/06/05 15:41:31;;;;;;;;;;;27.80;57.30;;;;;;8351731;28;19917;-81
2023/06/05 15:45:32;;;;;;;;;;;27.10;55.10;;;;;;8343433;28;19927;-82
2023/06/05 15:49:33;;;;;;;;;;;26.00;57.10;;;;;;8370760;28;19920;-82
2023/06/05 15:53:33;;;;;;;;;;;25.20;60.60;;;;;;8344075;28;19920;-81
2023/06/05 15:57:34;;;;;;;;;;;25.10;63.40;;;;;;8343173;28;20384;-83
2023/06/05 16:01:35;;;;;;;;;;;25.00;65.10;;;;;;8339801;28;19923;-81
2023/06/05 16:05:35;;;;;;;;;;;24.80;63.90;;;;;;8354348;28;20475;-82
2023/06/05 16:09:36;;;;;;;;;;;24.90;68.40;;;;;;8342905;28;20367;-80
2023/06/05 16:13:37;;;;;;;;;;;24.70;62.60;;;;;;8376971;28;19909;-81
2023/06/05 16:17:41;;;;;;;;;;;24.90;63.80;;;;;;8376215;28;19909;-81
2023/06/05 16:21:42;;;;;;;;;;;24.80;61.50;;;;;;8388431;28;20015;-80
2023/06/05 16:25:42;;;;;;;;;;;24.60;62.30;;;;;;8371119;28;19948;-81
2023/06/05 16:29:45;;;;;;;;;;;24.60;59.80;;;;;;8375256;28;19913;-80
2023/06/05 16:33:45;;;;;;;;;;;24.60;64.20;;;;;;8348129;28;19917;-81
2023/06/05 16:37:46;;;;;;;;;;;24.60;63.20;;;;;;8349243;28;19924;-80
2023/06/05 16:41:46;;;;;;;;;;;24.50;61.60;;;;;;8363315;28;19912;-81
2023/06/05 16:45:48;;;;;;;;;;;24.40;63.00;;;;;;8352858;28;19916;-82
2023/06/05 16:49:49;;;;;;;;;;;24.40;63.30;;;;;;8335725;28;19913;-81
2023/06/05 16:53:50;;;;;;;;;;;24.30;63.20;;;;;;8359287;28;20003;-81
2023/06/05 16:57:51;;;;;;;;;;;24.20;64.80;;;;;;8359875;28;19913;-80
2023/06/05 17:01:51;;;;;;;;;;;24.00;64.70;;;;;;8380581;28;19917;-80
2023/06/05 17:05:52;;;;;;;;;;;23.80;66.20;;;;;;8355286;28;20361;-81
2023/06/05 17:09:52;;;;;;;;;;;23.80;70.00;;;;;;8348808;28;19913;-81
2023/06/05 17:13:53;;;;;;;;;;;23.30;70.10;;;;;;8342682;28;20409;-81
2023/06/05 17:17:53;;;;;;;;;;;23.10;68.30;;;;;;8347172;28;19967;-81
2023/06/05 17:21:53;;;;;;;;;;;22.90;70.10;;;;;;8347244;28;19924;-80
2023/06/05 17:25:54;;;;;;;;;;;22.70;72.00;;;;;;8341446;28;19921;-80
2023/06/05 17:29:54;;;;;;;;;;;22.60;69.50;;;;;;8367385;28;19916;-80
2023/06/05 17:33:55;;;;;;;;;;;22.50;69.10;;;;;;8369575;28;19982;-80
2023/06/05 17:37:56;;;;;;;;;;;22.50;67.30;;;;;;8367427;28;20147;-80
2023/06/05 17:41:56;;;;;;;;;;;22.30;69.80;;;;;;8369532;28;20684;-80
2023/06/05 17:45:57;;;;;;;;;;;22.10;70.70;;;;;;8357696;28;20386;-79
2023/06/05 17:49:57;;;;;;;;;;;22.00;70.60;;;;;;8370179;28;19908;-81
2023/06/05 17:53:57;;;;;;;;;;;22.00;74.80;;;;;;8341243;28;19913;-80
2023/06/05 17:57:58;;;;;;;;;;;21.90;75.40;;;;;;8365659;28;19912;-83
2023/06/05 18:01:59;;;;;;;;;;;21.70;79.40;;;;;;8365891;28;20395;-82
2023/06/05 18:05:59;;;;;;;;;;;21.80;78.50;;;;;;8373695;28;20289;-80
2023/06/05 18:10:00;;;;;;;;;;;21.70;80.30;;;;;;8357531;28;19908;-83
2023/06/05 18:14:00;;;;;;;;;;;21.70;77.30;;;;;;8349530;28;20011;-80
2023/06/05 18:18:01;;;;;;;;;;;21.40;86.50;;;;;;8379491;28;19952;-81
2023/06/05 18:22:02;;;;;;;;;;;21.30;90.00;;;;;;8349665;28;20001;-79
2023/06/05 18:26:02;;;;;;;;;;;20.90;92.00;;;;;;8365388;28;19988;-79
2023/06/05 18:30:03;;;;;;;;;;;20.40;92.80;;;;;;8341487;28;20319;-81
2023/06/05 18:34:03;;;;;;;;;;;20.20;93.90;;;;;;8372754;28;21079;-80
2023/06/05 18:38:04;;;;;;;;;;;20.10;94.10;;;;;;8342861;28;19920;-80
2023/06/05 18:42:05;;;;;;;;;;;19.80;94.60;;;;;;8341529;28;19920;-80
2023/06/05 18:46:05;;;;;;;;;;;19.50;94.60;;;;;;8338562;28;19923;-79
2023/06/05 18:50:06;;;;;;;;;;;19.20;95.10;;;;;;8347631;28;20485;-80
2023/06/05 18:54:06;;;;;;;;;;;18.90;94.70;;;;;;8358497;28;20550;-80
2023/06/05 18:58:07;;;;;;;;;;;18.40;94.60;;;;;;8335896;28;20499;-80
2023/06/05 19:02:07;;;;;;;;;;;18.40;95.10;;;;;;8340683;28;19909;-79
2023/06/05 19:06:08;;;;;;;;;;;18.20;95.70;;;;;;8352316;28;20347;-79
2023/06/05 19:10:09;;;;;;;;;;;17.50;96.60;;;;;;8346690;28;20503;-79
2023/06/05 19:14:09;;;;;;;;;;;17.70;97.80;;;;;;8350365;28;19917;-79
2023/06/05 19:18:10;;;;;;;;;;;17.60;98.10;;;;;;8337159;28;19916;-79
2023/06/05 19:22:11;;;;;;;;;;;17.10;98.80;;;;;;8345552;28;19927;-80
2023/06/05 19:26:11;;;;;;;;;;;16.80;99.90;;;;;;8349918;28;19924;-81
2023/06/05 19:30:12;;;;;;;;;;;16.40;99.90;;;;;;8343800;28;20674;-79
2023/06/05 19:34:12;;;;;;;;;;;16.20;99.90;;;;;;8362541;28;19916;-79
2023/06/05 19:38:13;;;;;;;;;;;16.10;99.90;;;;;;8363377;28;19978;-78
2023/06/05 19:42:13;;;;;;;;;;;15.40;99.90;;;;;;8365807;28;19971;-79
2023/06/05 19:46:14;;;;;;;;;;;15.20;99.90;;;;;;8343480;28;19926;-78
2023/06/05 19:50:16;;;;;;;;;;;15.00;99.90;;;;;;8326687;28;19916;-78
2023/06/05 19:54:16;;;;;;;;;;;14.70;99.90;;;;;;8344093;28;19917;-78
2023/06/05 19:58:17;;;;;;;;;;;14.40;99.90;;;;;;8347020;28;20357;-79
2023/06/05 20:02:17;;;;;;;;;;;14.10;99.90;;;;;;8358903;28;19913;-78
2023/06/05 20:06:18;;;;;;;;;;;13.70;99.90;;;;;;8349498;28;19935;-79
2023/06/05 20:10:18;;;;;;;;;;;13.50;99.90;;;;;;8347258;28;19920;-79
2023/06/05 20:14:19;;;;;;;;;;;13.30;99.90;;;;;;8351054;28;20392;-79
2023/06/05 20:18:20;;;;;;;;;;;13.20;99.90;;;;;;8345703;28;20403;-78
2023/06/05 20:22:21;;;;;;;;;;;13.10;99.90;;;;;;8343961;28;20031;-78
2023/06/05 20:26:22;;;;;;;;;;;13.30;99.90;;;;;;8347995;28;20141;-79
2023/06/05 20:30:22;;;;;;;;;;;13.00;99.90;;;;;;8352717;28;19920;-79
2023/06/05 20:34:23;;;;;;;;;;;12.80;99.90;;;;;;8378190;28;19963;-79
2023/06/05 20:38:23;;;;;;;;;;;12.60;99.90;;;;;;8376052;28;20380;-78
2023/06/05 20:42:27;;;;;;;;;;;12.60;99.90;;;;;;8389891;28;19916;-79
2023/06/05 20:46:28;;;;;;;;;;;12.60;99.90;;;;;;8377745;28;19916;-79
2023/06/05 20:50:28;;;;;;;;;;;12.60;99.90;;;;;;8379898;28;19909;-79
2023/06/05 20:54:29;;;;;;;;;;;13.10;99.90;;;;;;8371546;28;20416;-79
2023/06/05 20:58:30;;;;;;;;;;;13.30;99.90;;;;;;8370459;28;19935;-79
2023/06/05 21:02:30;;;;;;;;;;;13.00;99.90;;;;;;8379895;28;19912;-79
2023/06/05 21:06:31;;;;;;;;;;;13.30;99.90;;;;;;8397841;28;19920;-79
2023/06/05 21:10:31;;;;;;;;;;;13.00;99.90;;;;;;8378919;28;20019;-79
2023/06/05 21:14:32;;;;;;;;;;;12.90;99.90;;;;;;8377743;28;20525;-79
2023/06/05 21:18:32;;;;;;;;;;;12.50;99.90;;;;;;8391066;28;19909;-79
2023/06/05 21:22:33;;;;;;;;;;;12.70;99.90;;;;;;8378218;28;19916;-79
2023/06/05 21:26:34;;;;;;;;;;;12.40;99.90;;;;;;8370294;28;19923;-78
2023/06/05 21:30:34;;;;;;;;;;;12.40;99.90;;;;;;8398750;28;19909;-78
2023/06/05 21:34:42;;;;;;;;;;;12.00;99.90;;;;;;8366337;28;19908;-79
2023/06/05 21:38:44;;;;;;;;;;;11.80;99.90;;;;;;8369592;28;19912;-78
2023/06/05 21:42:45;;;;;;;;;;;11.50;99.90;;;;;;8362640;28;19916;-77
2023/06/05 21:46:46;;;;;;;;;;;11.50;99.90;;;;;;8379583;28;19939;-78
2023/06/05 21:50:46;;;;;;;;;;;11.40;99.90;;;;;;8384365;28;19917;-77
2023/06/05 21:54:47;;;;;;;;;;;12.30;99.90;;;;;;8378263;28;19917;-78
2023/06/05 21:58:47;;;;;;;;;;;12.20;99.90;;;;;;8396727;28;19920;-78
2023/06/05 22:02:48;;;;;;;;;;;11.90;99.90;;;;;;8361730;28;19913;-79
2023/06/05 22:06:48;;;;;;;;;;;11.70;99.90;;;;;;8384021;28;20011;-79
2023/06/05 22:10:49;;;;;;;;;;;11.30;99.90;;;;;;8384545;28;19962;-78
2023/06/05 22:14:51;;;;;;;;;;;11.20;99.90;;;;;;8378919;28;19908;-77
2023/06/05 22:18:52;;;;;;;;;;;10.90;99.90;;;;;;8359235;28;19917;-78
2023/06/05 22:22:52;;;;;;;;;;;10.70;99.90;;;;;;8394978;28;20284;-77
2023/06/05 22:26:53;;;;;;;;;;;10.50;99.90;;;;;;8355305;28;19913;-78
2023/06/05 22:30:53;;;;;;;;;;;10.50;99.90;;;;;;8382602;28;20011;-77
2023/06/05 22:34:54;;;;;;;;;;;10.70;99.90;;;;;;8362759;28;19913;-77
2023/06/05 22:38:57;;;;;;;;;;;10.60;99.90;;;;;;8370859;28;19924;-77
2023/06/05 22:42:58;;;;;;;;;;;10.50;99.90;;;;;;8388815;28;19916;-77
2023/06/05 22:46:58;;;;;;;;;;;10.50;99.90;;;;;;8374176;28;19935;-77
2023/06/05 22:50:59;;;;;;;;;;;10.20;99.90;;;;;;8370500;28;20519;-77
2023/06/05 22:55:00;;;;;;;;;;;10.10;99.90;;;;;;8363226;28;20011;-76
2023/06/05 22:59:00;;;;;;;;;;;10.20;99.90;;;;;;8391318;28;20377;-78
2023/06/05 23:03:01;;;;;;;;;;;10.40;99.90;;;;;;8369962;28;20373;-77
2023/06/05 23:07:02;;;;;;;;;;;10.60;99.90;;;;;;8393228;28;19963;-77
2023/06/05 23:11:03;;;;;;;;;;;10.50;99.90;;;;;;8365638;28;19915;-78
2023/06/05 23:15:04;;;;;;;;;;;10.60;99.90;;;;;;8367514;28;19916;-76
2023/06/05 23:19:05;;;;;;;;;;;10.70;99.90;;;;;;8378483;28;19920;-78
2023/06/05 23:23:06;;;;;;;;;;;10.70;99.90;;;;;;8388403;28;19956;-77
2023/06/05 23:27:06;;;;;;;;;;;10.60;99.90;;;;;;8355619;28;19920;-77
2023/06/05 23:31:07;;;;;;;;;;;10.20;99.90;;;;;;8374670;28;19909;-76
2023/06/05 23:35:08;;;;;;;;;;;9.80;99.90;;;;;;8371102;28;19935;-78